Time;durP1;ratioP1;P1;durP2;ratioP2;P2;SDS_P1;SDS_P2;PMS_P1;PMS_P2;Temp;Humidity;BMP_temperature;BMP_pressure;BME280_temperature;BME280_humidity;BME280_pressure;Samples;Min_cycle;Max_cycle;Signal;HPM_P1;HPM_P2
2023/01/02 00:00:21;;;;;;;6.18;4.00;;;;;;;13.21;76.68;99350.75;4973480;28;20077;-78
2023/01/02 00:02:48;;;;;;;9.18;4.68;;;;;;;13.19;77.01;99339.41;4974103;28;20170;-79
2023/01/02 00:05:16;;;;;;;9.07;4.25;;;;;;;13.22;76.78;99327.78;4973834;28;20051;-78
2023/01/02 00:07:43;;;;;;;10.32;4.40;;;;;;;13.23;76.89;99337.41;4972873;28;20420;-78
2023/01/02 00:10:09;;;;;;;8.70;3.80;;;;;;;13.24;76.79;99333.81;5001122;28;20058;-78
2023/01/02 00:12:36;;;;;;;11.63;4.50;;;;;;;13.25;76.70;99325.75;5012179;28;20112;-77
2023/01/02 00:15:03;;;;;;;12.13;4.68;;;;;;;13.27;76.91;99317.72;5012931;28;20097;-78
2023/01/02 00:17:30;;;;;;;11.60;4.20;;;;;;;13.27;76.66;99310.63;5012880;28;20550;-79
2023/01/02 00:19:57;;;;;;;9.25;4.35;;;;;;;13.28;76.90;99308.81;5012942;28;20112;-78
2023/01/02 00:22:23;;;;;;;13.25;4.65;;;;;;;13.28;76.90;99303.53;5012481;28;20050;-79
2023/01/02 00:24:50;;;;;;;9.77;4.65;;;;;;;13.29;76.90;99302.56;5011501;28;20065;-78
2023/01/02 00:27:16;;;;;;;11.15;4.25;;;;;;;13.28;77.08;99299.06;5012694;28;20104;-78
2023/01/02 00:29:43;;;;;;;10.77;4.65;;;;;;;13.31;76.69;99300.66;5012913;28;20089;-79
2023/01/02 00:32:09;;;;;;;12.23;4.93;;;;;;;13.32;76.90;99294.41;5012680;28;20158;-77
2023/01/02 00:34:36;;;;;;;11.60;4.18;;;;;;;13.33;76.86;99293.44;5012582;28;20061;-78
2023/01/02 00:37:02;;;;;;;11.68;4.68;;;;;;;13.33;76.55;99296.09;5012143;28;20093;-78
2023/01/02 00:39:29;;;;;;;12.40;4.50;;;;;;;13.33;76.86;99296.09;5012766;28;20050;-78
2023/01/02 00:41:55;;;;;;;13.68;5.00;;;;;;;13.33;76.81;99293.44;5011223;28;20163;-78
2023/01/02 00:44:22;;;;;;;12.90;4.32;;;;;;;13.33;76.71;99297.88;5010297;28;20045;-78
2023/01/02 00:46:49;;;;;;;9.32;4.50;;;;;;;13.32;77.03;99312.06;5010899;28;20058;-78
2023/01/02 00:49:15;;;;;;;10.52;4.60;;;;;;;13.32;77.07;99312.06;5012242;28;20061;-78
2023/01/02 00:51:41;;;;;;;13.90;4.60;;;;;;;13.32;77.36;99325.28;5012138;28;20058;-78
2023/01/02 00:54:08;;;;;;;10.15;4.30;;;;;;;13.31;77.25;99321.81;5012312;28;20083;-78
2023/01/02 00:56:35;;;;;;;9.52;4.20;;;;;;;13.34;77.46;99320.75;5012084;28;20088;-78
2023/01/02 00:59:01;;;;;;;12.10;5.10;;;;;;;13.34;77.64;99318.91;5012050;28;20101;-78
2023/01/02 01:01:28;;;;;;;10.93;4.57;;;;;;;13.37;77.63;99320.50;5012163;28;20066;-77
2023/01/02 01:03:54;;;;;;;11.77;4.38;;;;;;;13.37;77.59;99320.50;5012036;28;20062;-79
2023/01/02 01:06:21;;;;;;;8.52;4.00;;;;;;;13.40;77.65;99314.97;5011800;28;20089;-78
2023/01/02 01:08:47;;;;;;;10.32;4.82;;;;;;;13.40;77.43;99310.53;5011674;28;20204;-78
2023/01/02 01:11:16;;;;;;;11.77;4.85;;;;;;;13.40;77.54;99305.25;5012102;28;20092;-78
2023/01/02 01:13:43;;;;;;;13.48;4.68;;;;;;;13.41;77.49;99301.66;5011863;28;20100;-77
2023/01/02 01:16:16;;;;;;;12.23;4.18;;;;;;;13.39;77.54;99303.53;5011565;28;20064;-78
2023/01/02 01:18:44;;;;;;;10.00;4.00;;;;;;;13.43;77.84;99305.00;4994178;28;20113;-78
2023/01/02 01:21:16;;;;;;;13.40;4.32;;;;;;;13.43;78.01;99302.34;5011698;28;20495;-79
2023/01/02 01:23:43;;;;;;;11.18;4.07;;;;;;;13.46;78.03;99288.06;5010775;28;20104;-77
2023/01/02 01:26:12;;;;;;;8.43;3.95;;;;;;;13.49;78.08;99295.78;5011400;28;20630;-77
2023/01/02 01:28:39;;;;;;;10.20;4.00;;;;;;;13.54;77.92;99295.44;5011538;28;20053;-79
2023/01/02 01:31:08;;;;;;;11.48;4.53;;;;;;;13.54;77.80;99285.69;5011442;28;20068;-78
2023/01/02 01:33:36;;;;;;;10.70;4.43;;;;;;;13.59;77.92;99277.41;5011641;28;20050;-77
2023/01/02 01:36:05;;;;;;;10.70;4.55;;;;;;;13.59;77.90;99282.72;5011440;28;20097;-77
2023/01/02 01:38:32;;;;;;;8.75;4.25;;;;;;;13.63;77.84;99270.94;5011456;28;20050;-78
2023/01/02 01:41:00;;;;;;;10.38;4.05;;;;;;;13.64;77.64;99280.53;5010075;28;20136;-78
2023/01/02 01:43:56;;;;;;;12.55;4.88;;;;;;;13.63;77.29;99270.09;5011470;28;20060;-78
2023/01/02 01:46:42;;;;;;;13.55;5.10;;;;;;;13.65;77.36;99279.56;5010177;28;20189;-78
2023/01/02 01:49:23;;;;;;;8.32;4.35;;;;;;;13.67;77.32;99268.88;5011553;28;20157;-78
2023/01/02 01:52:02;;;;;;;10.20;4.45;;;;;;;13.64;77.13;99277.06;5011083;28;20057;-78
2023/01/02 01:54:34;;;;;;;10.93;4.57;;;;;;;13.66;77.23;99268.06;5010725;28;20090;-79
2023/01/02 01:57:11;;;;;;;10.60;5.18;;;;;;;13.63;77.06;99276.22;5010951;28;20057;-78
2023/01/02 01:59:38;;;;;;;11.50;4.53;;;;;;;13.66;77.56;99267.22;5011167;28;20056;-79
2023/01/02 02:02:05;;;;;;;10.30;4.55;;;;;;;13.66;77.77;99283.06;5010967;28;20511;-79
2023/01/02 02:04:33;;;;;;;9.27;4.82;;;;;;;13.65;77.70;99279.56;4993614;28;20062;-78
2023/01/02 02:06:59;;;;;;;14.25;4.53;;;;;;;13.66;77.76;99273.34;5010694;28;20491;-78
2023/01/02 02:09:34;;;;;;;8.90;4.30;;;;;;;13.65;77.30;99276.09;5011061;28;20064;-78
2023/01/02 02:12:03;;;;;;;17.25;4.57;;;;;;;13.70;77.76;99268.66;5009848;28;20093;-78
2023/01/02 02:14:29;;;;;;;11.50;4.90;;;;;;;13.72;77.76;99266.72;5010877;28;20141;-77
2023/01/02 02:17:04;;;;;;;10.65;4.03;;;;;;;13.74;77.26;99266.59;5010383;28;20123;-78
2023/01/02 02:19:55;;;;;;;12.25;4.65;;;;;;;13.73;76.76;99272.84;5010891;28;20061;-79
2023/01/02 02:22:46;;;;;;;12.48;4.50;;;;;;;13.76;76.85;99262.88;5009677;28;20068;-77
2023/01/02 02:25:40;;;;;;;10.90;3.90;;;;;;;13.78;76.82;99263.59;5010249;28;20056;-77
2023/01/02 02:28:17;;;;;;;10.45;4.70;;;;;;;13.79;76.57;99261.78;5010737;28;20140;-78
2023/01/02 02:30:59;;;;;;;8.93;4.00;;;;;;;13.78;76.58;99266.25;5010673;28;20054;-78
2023/01/02 02:33:25;;;;;;;11.18;4.10;;;;;;;13.82;77.29;99266.84;5010793;28;20057;-78
2023/01/02 02:36:13;;;;;;;9.20;3.72;;;;;;;13.77;75.99;99263.72;5008828;28;20092;-78
2023/01/02 02:38:56;;;;;;;8.23;3.90;;;;;;;13.82;76.81;99261.56;5010805;28;20053;-77
2023/01/02 02:41:36;;;;;;;12.13;4.47;;;;;;;13.80;76.51;99252.91;5010546;28;20149;-78
2023/01/02 02:44:37;;;;;;;12.75;4.55;;;;;;;13.80;76.33;99252.91;5010479;28;20467;-78
2023/01/02 02:47:10;;;;;;;8.57;3.78;;;;;;;13.84;76.76;99256.16;5010175;28;20053;-78
2023/01/02 02:49:42;;;;;;;9.07;4.07;;;;;;;13.84;76.52;99254.34;5010683;28;20065;-77
2023/01/02 02:52:37;;;;;;;8.77;4.00;;;;;;;13.82;76.34;99253.63;5010413;28;20058;-78
2023/01/02 02:55:15;;;;;;;9.15;4.47;;;;;;;13.83;76.07;99260.56;5009285;28;20057;-78
2023/01/02 02:57:44;;;;;;;7.95;3.85;;;;;;;13.86;76.91;99263.00;5010106;28;20602;-78
2023/01/02 03:00:18;;;;;;;10.45;3.97;;;;;;;13.83;76.62;99246.53;5010426;28;20495;-78
2023/01/02 03:02:45;;;;;;;8.70;4.13;;;;;;;13.84;76.98;99248.22;5009154;28;20521;-77
2023/01/02 03:05:19;;;;;;;18.98;4.05;;;;;;;13.81;76.90;99242.22;5010401;28;20089;-77
2023/01/02 03:07:51;;;;;;;10.07;4.03;;;;;;;13.77;77.05;99238.13;5012080;28;20684;-77
2023/01/02 03:10:56;;;;;;;14.07;4.20;;;;;;;13.72;77.25;99242.09;5013154;28;20141;-78
2023/01/02 03:13:40;;;;;;;11.77;4.43;;;;;;;13.75;77.65;99241.84;5012854;28;20057;-77
2023/01/02 03:16:13;;;;;;;13.88;4.07;;;;;;;13.78;77.84;99257.47;5014196;28;20137;-77
2023/01/02 03:19:07;;;;;;;10.15;4.38;;;;;;;13.73;77.80;99241.97;5013971;28;20054;-78
2023/01/02 03:21:54;;;;;;;11.85;4.20;;;;;;;13.80;78.32;99250.25;5013902;28;20490;-78
2023/01/02 03:24:23;;;;;;;9.82;4.03;;;;;;;13.80;78.67;99250.25;5013407;28;20148;-77
2023/01/02 03:26:55;;;;;;;9.35;4.18;;;;;;;13.81;78.60;99251.94;5013704;28;20058;-77
2023/01/02 03:29:33;;;;;;;15.15;4.18;;;;;;;13.81;78.52;99258.09;5013797;28;20503;-78
2023/01/02 03:32:03;;;;;;;8.57;4.30;;;;;;;13.86;78.96;99249.75;5012759;28;20062;-77
2023/01/02 03:34:35;;;;;;;10.60;3.58;;;;;;;13.87;78.84;99246.16;5013469;28;20054;-77
2023/01/02 03:37:07;;;;;;;10.80;3.72;;;;;;;13.89;79.09;99246.03;5013464;28;20510;-77
2023/01/02 03:39:38;;;;;;;9.32;4.13;;;;;;;13.90;78.90;99247.72;5013765;28;20562;-77
2023/01/02 03:42:11;;;;;;;7.95;3.85;;;;;;;13.91;79.03;99244.13;5013686;28;20485;-78
2023/01/02 03:44:48;;;;;;;8.35;3.40;;;;;;;13.91;78.88;99255.53;5013320;28;20058;-76
2023/01/02 03:47:36;;;;;;;17.85;4.55;;;;;;;13.90;78.98;99243.28;5013646;28;20056;-76
2023/01/02 03:50:35;;;;;;;9.30;3.65;;;;;;;13.91;78.80;99252.88;5013709;28;20064;-77
2023/01/02 03:53:02;;;;;;;10.43;3.63;;;;;;;13.97;78.93;99248.09;5009853;28;20469;-77
2023/01/02 03:55:32;;;;;;;12.68;4.20;;;;;;;13.94;78.91;99252.66;5013168;28;20050;-77
2023/01/02 03:58:08;;;;;;;12.85;4.35;;;;;;;13.94;79.04;99252.66;5013367;28;20112;-77
2023/01/02 04:00:49;;;;;;;8.50;4.03;;;;;;;13.91;78.82;99250.22;5013188;28;20096;-77
2023/01/02 04:03:38;;;;;;;11.15;4.25;;;;;;;13.88;78.73;99258.44;5013218;28;20058;-76
2023/01/02 04:06:11;;;;;;;10.57;3.40;;;;;;;13.92;79.08;99245.78;5013163;28;20072;-76
2023/01/02 04:08:49;;;;;;;11.45;3.70;;;;;;;13.90;78.97;99243.28;5013041;28;20058;-77
2023/01/02 04:11:19;;;;;;;8.52;3.92;;;;;;;13.92;78.91;99251.94;5013074;28;20056;-76
2023/01/02 04:13:54;;;;;;;10.23;3.90;;;;;;;13.90;78.91;99243.28;5012771;28;20114;-76
2023/01/02 04:16:28;;;;;;;11.50;3.95;;;;;;;13.90;79.03;99248.56;5012742;28;20940;-76
2023/01/02 04:19:01;;;;;;;10.15;4.07;;;;;;;13.90;79.02;99263.59;5012742;28;20050;-77
2023/01/02 04:21:32;;;;;;;9.25;3.55;;;;;;;13.90;79.28;99243.28;5012713;28;20798;-76
2023/01/02 04:24:09;;;;;;;9.25;4.00;;;;;;;13.88;78.71;99255.78;5012837;28;20096;-77
2023/01/02 04:26:44;;;;;;;12.75;4.35;;;;;;;13.87;79.09;99250.63;5010640;28;20057;-76
2023/01/02 04:29:11;;;;;;;10.73;3.58;;;;;;;13.89;79.45;99241.59;4995082;28;20050;-75
2023/01/02 04:31:46;;;;;;;11.27;4.30;;;;;;;13.86;79.00;99247.13;5012836;28;20085;-76
2023/01/02 04:34:15;;;;;;;10.23;3.80;;;;;;;13.88;79.22;99253.16;5010316;28;20049;-77
2023/01/02 04:36:42;;;;;;;10.90;3.70;;;;;;;13.90;79.16;99258.28;5010636;28;20054;-77
2023/01/02 04:39:09;;;;;;;6.97;3.72;;;;;;;13.90;79.30;99237.13;5011413;28;20145;-77
2023/01/02 04:41:37;;;;;;;8.57;3.55;;;;;;;13.90;79.25;99242.41;5012636;28;20050;-77
2023/01/02 04:44:04;;;;;;;9.00;3.80;;;;;;;13.89;79.32;99228.38;5012606;28;20099;-77
2023/01/02 04:46:31;;;;;;;11.45;4.15;;;;;;;13.88;78.89;99245.22;5012441;28;20060;-77
2023/01/02 04:48:59;;;;;;;12.52;3.97;;;;;;;13.89;79.09;99236.31;5012066;28;20165;-76
2023/01/02 04:51:26;;;;;;;12.23;4.60;;;;;;;13.90;79.33;99237.13;5012442;28;20053;-77
2023/01/02 04:53:53;;;;;;;10.68;3.85;;;;;;;13.90;79.15;99237.97;5012347;28;20141;-76
2023/01/02 04:56:20;;;;;;;14.00;3.65;;;;;;;13.93;79.22;99237.75;5010899;28;20062;-76
2023/01/02 04:58:48;;;;;;;12.18;3.90;;;;;;;13.91;79.06;99255.53;5011986;28;20061;-76
2023/01/02 05:01:16;;;;;;;9.15;3.88;;;;;;;13.91;78.94;99254.69;5012157;28;20061;-76
2023/01/02 05:03:46;;;;;;;12.52;4.63;;;;;;;13.90;78.96;99251.19;5011954;28;20141;-77
2023/01/02 05:06:14;;;;;;;11.88;4.38;;;;;;;13.91;79.04;99255.53;5012117;28;20061;-76
2023/01/02 05:11:09;;;;;;;11.23;4.95;;;;;;;13.89;79.05;99261.91;5103401;23;20124;-78
2023/01/02 05:13:35;;;;;;;10.68;4.30;;;;;;;13.90;79.06;99264.44;5031150;28;20060;-77
2023/01/02 05:16:02;;;;;;;10.82;3.70;;;;;;;13.89;79.19;99273.34;5031286;28;20046;-78
2023/01/02 05:18:30;;;;;;;9.48;3.92;;;;;;;13.88;79.12;99290.19;5013650;28;20053;-77
2023/01/02 05:21:06;;;;;;;12.13;4.93;;;;;;;13.84;78.77;99267.56;5031201;28;20049;-77
2023/01/02 05:23:48;;;;;;;9.93;4.57;;;;;;;13.88;79.27;99270.81;5031352;28;20050;-77
2023/01/02 05:26:16;;;;;;;10.70;4.55;;;;;;;13.87;79.21;99272.59;5030748;28;20053;-77
2023/01/02 05:28:43;;;;;;;10.07;4.10;;;;;;;13.86;79.41;99267.47;5030982;28;20489;-77
2023/01/02 05:31:10;;;;;;;8.98;4.10;;;;;;;13.84;79.43;99267.56;5029806;28;20100;-77
2023/01/02 05:33:37;;;;;;;13.25;4.32;;;;;;;13.81;79.50;99273.94;5031248;28;20505;-78
2023/01/02 05:36:05;;;;;;;10.55;4.57;;;;;;;13.81;79.54;99283.69;5030679;28;20103;-78
2023/01/02 05:38:33;;;;;;;16.08;5.32;;;;;;;13.80;79.58;99284.66;5030703;28;20049;-78
2023/01/02 05:41:01;;;;;;;12.98;4.88;;;;;;;13.77;79.75;99279.59;5018184;28;20495;-78
2023/01/02 05:43:32;;;;;;;9.10;4.18;;;;;;;13.74;79.91;99285.97;5010622;28;20050;-78
2023/01/02 05:46:15;;;;;;;13.48;4.72;;;;;;;13.73;79.73;99294.00;4993199;28;20056;-78
2023/01/02 05:48:42;;;;;;;13.57;5.03;;;;;;;13.74;79.90;99285.13;5010705;28;20398;-78
2023/01/02 05:51:10;;;;;;;12.55;4.80;;;;;;;13.73;79.91;99278.16;5010921;28;20120;-77
2023/01/02 05:53:37;;;;;;;10.63;4.70;;;;;;;13.74;80.02;99285.13;5010710;28;20046;-78
2023/01/02 05:56:15;;;;;;;9.23;4.35;;;;;;;13.71;79.69;99282.72;5010491;28;20411;-79
2023/01/02 05:58:45;;;;;;;14.18;4.85;;;;;;;13.72;79.96;99282.59;5010781;28;20442;-79
2023/01/02 06:01:18;;;;;;;10.38;4.63;;;;;;;13.70;79.55;99275.72;5011182;28;20481;-78
2023/01/02 06:03:47;;;;;;;9.88;4.43;;;;;;;13.73;79.99;99268.41;5011061;28;20084;-79
2023/01/02 06:06:14;;;;;;;7.40;4.20;;;;;;;13.74;79.98;99270.09;5010873;28;20100;-78
2023/01/02 06:08:41;;;;;;;11.43;4.30;;;;;;;13.74;79.93;99277.19;5010126;28;20469;-78
2023/01/02 06:11:07;;;;;;;10.02;4.32;;;;;;;13.74;79.74;99269.25;5010081;28;20042;-78
2023/01/02 06:13:36;;;;;;;12.18;4.63;;;;;;;13.75;79.62;99281.53;5014346;23;20057;-78
2023/01/02 06:16:04;;;;;;;11.35;4.70;;;;;;;13.73;79.60;99289.59;5027092;28;20696;-78
2023/01/02 06:18:33;;;;;;;10.13;4.40;;;;;;;13.74;79.69;99280.69;5029876;28;20057;-79
2023/01/02 06:21:01;;;;;;;9.98;3.95;;;;;;;13.75;79.54;99278.88;5030365;28;20461;-79
2023/01/02 06:23:28;;;;;;;11.98;4.30;;;;;;;13.75;79.69;99281.53;5030491;28;20057;-79
2023/01/02 06:26:01;;;;;;;10.52;4.15;;;;;;;13.74;79.42;99282.47;5029937;28;20107;-79
2023/01/02 06:28:28;;;;;;;11.95;4.45;;;;;;;13.77;79.67;99284.88;5029839;28;20053;-79
2023/01/02 06:31:03;;;;;;;8.25;4.22;;;;;;;13.75;79.24;99295.56;5030136;28;20502;-79
2023/01/02 06:33:29;;;;;;;15.07;3.80;;;;;;;13.80;79.53;99284.66;5030452;28;20050;-80
2023/01/02 06:36:01;;;;;;;9.60;4.13;;;;;;;13.80;79.48;99295.22;5029759;28;20573;-79
2023/01/02 06:38:28;;;;;;;11.77;3.70;;;;;;;13.81;79.54;99324.22;5030029;28;20061;-79
2023/01/02 06:40:56;;;;;;;13.23;4.93;;;;;;;13.81;79.45;99307.50;5012557;28;20053;-79
2023/01/02 06:43:23;;;;;;;8.27;4.03;;;;;;;13.80;79.27;99301.34;5012534;28;20060;-79
2023/01/02 06:45:50;;;;;;;10.32;4.10;;;;;;;13.84;79.42;99301.13;5029787;28;20104;-79
2023/01/02 06:48:17;;;;;;;11.65;4.10;;;;;;;13.84;79.30;99291.38;5029669;28;20053;-79
2023/01/02 06:50:44;;;;;;;9.65;4.10;;;;;;;13.85;78.97;99290.41;5029916;28;20068;-79
2023/01/02 06:53:12;;;;;;;9.25;3.80;;;;;;;13.86;79.26;99296.56;5030035;28;20052;-79
2023/01/02 06:55:38;;;;;;;6.65;3.85;;;;;;;13.86;79.13;99289.44;5029725;28;20054;-78
2023/01/02 06:58:05;;;;;;;14.45;4.10;;;;;;;13.88;79.00;99302.56;5029532;28;20068;-79
2023/01/02 07:00:38;;;;;;;10.75;3.55;;;;;;;13.88;79.07;99308.72;5030223;28;20108;-79
2023/01/02 07:03:05;;;;;;;10.75;4.00;;;;;;;13.89;79.15;99304.22;5012526;28;20049;-78
2023/01/02 07:05:31;;;;;;;7.82;3.78;;;;;;;13.91;79.20;99312.91;5029847;28;20053;-79
2023/01/02 07:07:58;;;;;;;11.65;3.72;;;;;;;13.92;78.98;99315.44;5029562;28;20053;-78
2023/01/02 07:10:24;;;;;;;10.65;4.25;;;;;;;13.93;78.91;99303.88;5029780;28;20060;-78
2023/01/02 07:12:51;;;;;;;10.85;3.80;;;;;;;13.95;79.00;99309.06;5029784;28;20045;-78
2023/01/02 07:15:17;;;;;;;9.27;4.03;;;;;;;13.96;79.22;99305.44;5029618;28;20478;-79
2023/01/02 07:17:44;;;;;;;7.22;3.33;;;;;;;13.97;78.96;99307.13;5029911;28;20196;-78
2023/01/02 07:20:10;;;;;;;8.07;4.07;;;;;;;13.98;78.75;99314.09;5030208;28;20057;-78
2023/01/02 07:22:37;;;;;;;8.68;4.00;;;;;;;13.99;78.77;99317.59;5030049;28;20150;-78
2023/01/02 07:25:04;;;;;;;9.82;3.63;;;;;;;13.99;78.60;99320.25;5029434;28;20051;-78
2023/01/02 07:27:31;;;;;;;13.50;3.83;;;;;;;14.00;78.58;99317.47;5011841;28;20092;-78
2023/01/02 07:29:58;;;;;;;7.97;3.92;;;;;;;14.01;78.36;99318.28;5029501;28;20577;-79
2023/01/02 07:32:25;;;;;;;8.07;4.13;;;;;;;14.02;78.62;99322.66;5030160;28;20136;-79
2023/01/02 07:34:53;;;;;;;10.02;4.07;;;;;;;14.03;78.67;99311.94;5029304;28;20060;-78
2023/01/02 07:37:19;;;;;;;7.40;3.58;;;;;;;14.03;78.51;99321.69;5029726;28;20061;-78
2023/01/02 07:39:46;;;;;;;9.48;4.20;;;;;;;14.03;78.42;99311.09;5029443;28;20144;-79
2023/01/02 07:42:12;;;;;;;13.65;5.30;;;;;;;14.03;78.46;99324.31;5029625;28;20065;-79
2023/01/02 07:44:39;;;;;;;12.32;4.30;;;;;;;14.04;78.58;99342.75;5029391;28;20140;-79
2023/01/02 07:47:05;;;;;;;10.30;4.50;;;;;;;14.05;78.46;99332.97;5029264;28;20156;-79
2023/01/02 07:49:32;;;;;;;9.20;4.93;;;;;;;14.05;78.18;99343.56;5029580;28;20536;-78
2023/01/02 07:51:58;;;;;;;9.82;4.80;;;;;;;14.05;78.22;99333.81;5029546;28;20395;-78
2023/01/02 07:54:26;;;;;;;14.93;5.07;;;;;;;14.07;78.33;99344.28;5032653;28;20053;-79
2023/01/02 07:56:53;;;;;;;10.30;3.75;;;;;;;14.09;78.33;99347.66;5032117;28;20061;-79
2023/01/02 07:59:19;;;;;;;11.15;4.35;;;;;;;14.07;77.98;99350.44;5033281;28;20057;-78
2023/01/02 08:01:46;;;;;;;13.57;4.78;;;;;;;14.08;78.09;99359.22;5033067;28;20068;-78
2023/01/02 08:04:12;;;;;;;11.38;4.78;;;;;;;14.10;78.01;99353.81;5033123;28;20064;-78
2023/01/02 08:06:40;;;;;;;11.43;4.65;;;;;;;14.11;78.13;99366.91;5032027;28;20061;-78
2023/01/02 08:09:07;;;;;;;10.38;4.93;;;;;;;14.10;77.94;99367.88;5032853;28;20092;-77
2023/01/02 08:11:33;;;;;;;11.55;4.75;;;;;;;14.12;77.97;99363.31;5015150;28;20528;-79
2023/01/02 08:14:00;;;;;;;9.65;4.68;;;;;;;14.14;78.10;99387.84;5032742;28;20521;-78
2023/01/02 08:16:26;;;;;;;12.10;5.03;;;;;;;14.12;77.91;99381.81;5032353;28;20497;-78
2023/01/02 08:18:54;;;;;;;10.70;4.63;;;;;;;14.13;77.78;99395.91;5015010;28;20057;-78
2023/01/02 08:21:23;;;;;;;7.10;4.38;;;;;;;14.13;77.91;99391.44;5015121;28;20577;-79
2023/01/02 08:23:49;;;;;;;11.80;5.05;;;;;;;14.15;77.83;99391.34;5032474;28;20148;-79
2023/01/02 08:26:16;;;;;;;12.25;4.38;;;;;;;14.13;77.69;99394.09;5032549;28;20057;-78
2023/01/02 08:28:43;;;;;;;9.70;4.22;;;;;;;14.14;77.96;99394.94;5032035;28;20049;-78
2023/01/02 08:31:16;;;;;;;7.57;4.35;;;;;;;14.13;77.38;99402.03;5032743;28;20057;-79
2023/01/02 08:33:43;;;;;;;6.57;4.13;;;;;;;14.16;77.72;99396.50;5032441;28;20108;-78
2023/01/02 08:36:10;;;;;;;8.93;4.00;;;;;;;14.15;77.63;99401.91;5032219;28;20053;-78
2023/01/02 08:38:37;;;;;;;7.03;3.97;;;;;;;14.15;77.51;99415.16;5031727;28;20505;-79
2023/01/02 08:41:04;;;;;;;7.00;4.30;;;;;;;14.12;77.40;99425.97;5014973;28;20059;-79
2023/01/02 08:43:33;;;;;;;9.18;4.30;;;;;;;14.08;76.86;99422.72;5014595;28;20115;-78
2023/01/02 08:46:07;;;;;;;7.90;4.10;;;;;;;14.07;76.85;99427.19;5032122;28;20053;-78
2023/01/02 08:48:34;;;;;;;7.13;3.85;;;;;;;14.07;77.56;99435.13;5014303;28;20049;-78
2023/01/02 08:51:02;;;;;;;7.78;3.80;;;;;;;14.07;77.62;99434.28;5032204;28;20490;-78
2023/01/02 08:53:29;;;;;;;13.43;4.38;;;;;;;14.06;77.48;99430.78;5032227;28;20063;-78
2023/01/02 08:56:16;;;;;;;8.40;3.35;;;;;;;14.00;76.55;99441.00;5031616;28;20448;-79
2023/01/02 08:58:43;;;;;;;8.48;3.75;;;;;;;14.03;77.53;99448.72;5031924;28;20075;-78
2023/01/02 09:01:17;;;;;;;4.45;3.20;;;;;;;13.98;77.54;99453.50;5031910;28;20054;-77
2023/01/02 09:03:44;;;;;;;7.95;3.40;;;;;;;13.96;77.70;99458.06;5031736;28;20536;-78
2023/01/02 09:06:10;;;;;;;6.53;3.60;;;;;;;13.89;77.89;99455.91;5030657;28;20079;-77
2023/01/02 09:08:45;;;;;;;7.38;4.03;;;;;;;13.86;78.11;99464.06;5031561;28;20046;-77
2023/01/02 09:11:18;;;;;;;9.32;3.40;;;;;;;13.76;77.80;99484.25;5014045;28;20061;-78
2023/01/02 09:13:45;;;;;;;7.55;3.40;;;;;;;13.75;78.13;99479.91;5014166;28;20187;-77
2023/01/02 09:16:11;;;;;;;6.88;3.42;;;;;;;13.72;78.50;99474.84;5031213;28;20049;-77
2023/01/02 09:18:39;;;;;;;3.85;2.88;;;;;;;13.67;78.63;99494.56;5031379;28;20063;-77
2023/01/02 09:21:05;;;;;;;4.00;2.42;;;;;;;13.64;78.87;99497.41;5031572;28;20049;-77
2023/01/02 09:23:33;;;;;;;9.85;2.50;;;;;;;13.63;79.07;99527.47;5031672;28;20072;-78
2023/01/02 09:26:01;;;;;;;4.88;2.40;;;;;;;13.62;79.10;99544.31;5031141;28;20054;-78
2023/01/02 09:28:29;;;;;;;2.88;1.77;;;;;;;13.60;78.92;99550.66;5030867;28;20057;-77
2023/01/02 09:30:56;;;;;;;3.28;1.55;;;;;;;13.57;78.52;99562.28;5031596;28;20096;-78
2023/01/02 09:33:22;;;;;;;2.53;1.60;;;;;;;13.54;78.14;99570.47;5031482;28;20494;-78
2023/01/02 09:35:49;;;;;;;3.28;1.48;;;;;;;13.50;77.86;99569.00;5031244;28;20067;-78
2023/01/02 09:38:15;;;;;;;1.98;1.10;;;;;;;13.46;77.72;99576.25;5030785;28;20057;-77
2023/01/02 09:40:49;;;;;;;2.25;0.90;;;;;;;13.39;77.10;99581.13;5031166;28;20109;-77
2023/01/02 09:43:21;;;;;;;1.20;1.08;;;;;;;13.37;77.22;99590.13;5030965;28;20501;-77
2023/01/02 09:45:49;;;;;;;1.15;1.00;;;;;;;13.32;77.21;99598.41;5031039;28;20090;-77
2023/01/02 09:48:19;;;;;;;1.05;0.80;;;;;;;13.26;76.57;99612.91;5013027;28;20058;-77
2023/01/02 09:50:48;;;;;;;0.70;0.70;;;;;;;13.21;76.39;99616.81;5031167;28;20057;-77
2023/01/02 09:53:15;;;;;;;1.63;0.93;;;;;;;13.16;76.56;99611.88;5030919;28;20064;-77
2023/01/02 09:55:53;;;;;;;2.08;0.90;;;;;;;13.06;74.94;99622.25;5030539;28;20057;-77
2023/01/02 09:58:26;;;;;;;1.17;0.80;;;;;;;13.06;76.77;99616.94;5012946;28;20053;-77
2023/01/02 10:00:52;;;;;;;1.05;1.05;;;;;;;13.01;76.95;99624.38;5030928;28;20049;-77
2023/01/02 10:03:35;;;;;;;1.00;0.90;;;;;;;12.94;76.61;99629.22;5013291;28;20053;-77
2023/01/02 10:06:10;;;;;;;1.73;1.20;;;;;;;12.92;76.99;99628.47;5030601;28;20053;-77
2023/01/02 10:08:54;;;;;;;1.27;1.15;;;;;;;12.86;76.72;99644.75;5030153;28;20085;-77
2023/01/02 10:11:20;;;;;;;;;;;;;;;12.88;76.54;99651.63;5031249;28;20076;-77
2023/01/02 10:14:00;;;;;;;1.35;1.25;;;;;;;12.88;76.43;99648.13;5030666;28;20289;-78
2023/01/02 10:16:49;;;;;;;2.25;1.40;;;;;;;12.86;77.09;99660.59;5014772;28;20072;-78
2023/01/02 10:19:21;;;;;;;1.55;1.45;;;;;;;12.79;76.86;99657.53;5030803;28;20058;-77
2023/01/02 10:21:53;;;;;;;2.20;2.03;;;;;;;12.77;77.39;99659.44;5030420;28;20060;-76
2023/01/02 10:24:37;;;;;;;1.90;1.80;;;;;;;12.72;77.14;99665.03;5030605;28;20056;-77
2023/01/02 10:27:10;;;;;;;1.83;1.73;;;;;;;12.71;77.90;99665.13;5029674;28;20509;-77
2023/01/02 10:29:53;;;;;;;2.05;1.75;;;;;;;12.68;77.61;99673.25;5030616;28;20060;-77
2023/01/02 10:32:21;;;;;;;2.67;1.70;;;;;;;12.67;77.57;99685.59;5012818;28;20060;-77
2023/01/02 10:34:54;;;;;;;2.40;2.20;;;;;;;12.65;77.38;99669.03;5012486;28;20529;-77
2023/01/02 10:37:20;;;;;;;2.03;1.90;;;;;;;12.64;77.48;99686.66;5030056;28;20152;-77
2023/01/02 10:39:49;;;;;;;3.03;2.53;;;;;;;12.60;77.16;99679.06;5030344;28;20498;-77
2023/01/02 10:42:16;;;;;;;2.70;2.50;;;;;;;12.59;77.42;99682.63;5030175;28;20076;-77
2023/01/02 10:44:44;;;;;;;2.42;2.22;;;;;;;12.55;77.32;99684.63;5030097;28;20128;-77
2023/01/02 10:47:31;;;;;;;2.58;2.38;;;;;;;12.51;76.58;99694.56;5029669;28;20053;-77
2023/01/02 10:49:57;;;;;;;3.45;3.05;;;;;;;12.53;77.76;99686.53;5030395;28;20049;-77
2023/01/02 10:52:30;;;;;;;3.15;2.83;;;;;;;12.49;77.29;99696.44;5030306;28;20559;-78
2023/01/02 10:54:58;;;;;;;2.70;2.50;;;;;;;12.50;77.84;99699.94;5030151;28;20054;-77
2023/01/02 10:57:43;;;;;;;2.80;2.60;;;;;;;12.46;77.10;99709.00;5029626;28;20049;-77
2023/01/02 11:00:30;;;;;;;;;;;;;;;12.48;76.76;99705.31;5030388;28;20103;-78
2023/01/02 11:03:06;;;;;;;2.63;2.30;;;;;;;12.49;76.75;99708.81;5012407;28;20271;-77
2023/01/02 11:05:42;;;;;;;2.63;2.42;;;;;;;12.50;77.57;99705.22;5012262;28;20085;-77
2023/01/02 11:08:14;;;;;;;2.78;2.58;;;;;;;12.46;77.17;99707.22;5029617;28;20054;-77
2023/01/02 11:10:42;;;;;;;3.17;2.80;;;;;;;12.47;77.66;99708.06;5090337;23;20053;-77
2023/01/02 11:13:13;;;;;;;2.50;2.30;;;;;;;12.46;77.58;99709.00;5012278;28;20144;-77
2023/01/02 11:16:03;;;;;;;3.17;2.42;;;;;;;12.40;76.58;99701.50;5030323;28;20068;-76
2023/01/02 11:18:34;;;;;;;2.20;2.00;;;;;;;12.43;77.27;99698.66;5030240;28;20084;-76
2023/01/02 11:21:04;;;;;;;2.63;2.35;;;;;;;12.44;77.90;99698.53;5029909;28;20091;-77
2023/01/02 11:23:39;;;;;;;2.88;2.25;;;;;;;12.42;77.30;99694.31;5030107;28;20064;-76
2023/01/02 11:26:19;;;;;;;2.10;1.90;;;;;;;12.40;76.17;99693.59;5012524;28;20155;-77
2023/01/02 11:28:47;;;;;;;2.60;2.22;;;;;;;12.40;77.26;99706.78;5032181;28;20068;-77
2023/01/02 11:31:16;;;;;;;2.05;1.85;;;;;;;12.37;77.20;99708.66;5016123;28;20065;-77
2023/01/02 11:33:44;;;;;;;2.08;1.88;;;;;;;12.36;76.97;99714.03;5033836;28;20061;-77
2023/01/02 11:36:11;;;;;;;1.90;1.60;;;;;;;12.36;77.15;99716.69;5033520;28;20505;-77
2023/01/02 11:38:43;;;;;;;2.55;2.13;;;;;;;12.32;76.43;99723.09;5033938;28;20136;-77
2023/01/02 11:44:56;;;;;;;2.22;1.77;;;;;;;12.30;76.20;99733.75;5033770;28;20180;-77
2023/01/02 11:47:37;;;;;;;2.15;1.95;;;;;;;12.30;75.89;99736.41;5032459;28;20414;-77
2023/01/02 11:50:04;;;;;;;3.10;2.80;;;;;;;12.32;76.77;99749.50;5015934;28;20141;-77
2023/01/02 11:52:54;;;;;;;2.80;2.60;;;;;;;12.24;75.60;99747.34;5033388;28;20100;-77